Time;durP1;ratioP1;P1;durP2;ratioP2;P2;SDS_P1;SDS_P2;PMS_P1;PMS_P2;Temp;Humidity;BMP_temperature;BMP_pressure;BME280_temperature;BME280_humidity;BME280_pressure;Samples;Min_cycle;Max_cycle;Signal;HPM_P1;HPM_P2
2022/01/08 00:01:18;;;;;;;52.63;21.03;;;;;;;;;;5013768;28;20245;-63
2022/01/08 00:03:46;;;;;;;47.20;19.73;;;;;;;;;;4996400;28;20214;-63
2022/01/08 00:06:13;;;;;;;41.83;16.13;;;;;;;;;;5014094;28;20209;-64
2022/01/08 00:08:40;;;;;;;39.83;15.77;;;;;;;;;;5013840;28;20224;-65
2022/01/08 00:11:10;;;;;;;54.63;20.37;;;;;;;;;;5013867;28;20209;-63
2022/01/08 00:13:39;;;;;;;69.73;31.50;;;;;;;;;;5013648;28;20213;-63
2022/01/08 00:16:07;;;;;;;62.00;19.93;;;;;;;;;;5013774;28;20213;-63
2022/01/08 00:18:34;;;;;;;53.27;18.67;;;;;;;;;;5013281;28;20236;-63
2022/01/08 00:21:01;;;;;;;43.93;17.20;;;;;;;;;;5013774;28;20562;-65
2022/01/08 00:23:30;;;;;;;43.43;18.73;;;;;;;;;;5013793;28;20217;-63
2022/01/08 00:25:58;;;;;;;36.17;15.83;;;;;;;;;;5013733;28;20213;-64
2022/01/08 00:28:26;;;;;;;80.90;26.57;;;;;;;;;;5013650;28;20213;-63
2022/01/08 00:30:54;;;;;;;104.80;32.17;;;;;;;;;;5013273;28;20628;-63
2022/01/08 00:33:21;;;;;;;64.90;20.87;;;;;;;;;;5013625;28;20218;-64
2022/01/08 00:35:48;;;;;;;49.77;35.17;;;;;;;;;;5013675;28;20209;-63
2022/01/08 00:38:16;;;;;;;122.50;33.30;;;;;;;;;;5013261;28;20236;-63
2022/01/08 00:40:43;;;;;;;61.13;20.27;;;;;;;;;;5013664;28;20617;-63
2022/01/08 00:43:10;;;;;;;59.67;20.77;;;;;;;;;;5013554;28;20232;-62
2022/01/08 00:45:37;;;;;;;50.77;17.40;;;;;;;;;;5013494;28;20213;-64
2022/01/08 00:48:05;;;;;;;36.47;13.10;;;;;;;;;;5016390;28;20220;-63
2022/01/08 00:50:32;;;;;;;27.93;11.50;;;;;;;;;;5017129;28;20209;-64
2022/01/08 00:53:00;;;;;;;34.67;13.37;;;;;;;;;;5017289;28;20316;-63
2022/01/08 00:55:27;;;;;;;92.97;24.40;;;;;;;;;;5016921;28;20214;-64
2022/01/08 00:57:54;;;;;;;54.70;23.77;;;;;;;;;;5016749;28;20661;-64
2022/01/08 01:00:22;;;;;;;84.13;24.03;;;;;;;;;;5016466;28;20634;-63
2022/01/08 01:02:49;;;;;;;39.47;13.67;;;;;;;;;;5016714;28;20557;-63
2022/01/08 01:05:19;;;;;;;37.60;13.77;;;;;;;;;;4983561;28;20213;-63
2022/01/08 01:07:46;;;;;;;42.23;14.07;;;;;;;;;;5016627;28;20699;-63
2022/01/08 01:10:15;;;;;;;33.60;12.73;;;;;;;;;;5016695;28;20271;-63
2022/01/08 01:12:43;;;;;;;70.43;18.33;;;;;;;;;;4999660;28;20275;-63
2022/01/08 01:15:13;;;;;;;72.53;19.00;;;;;;;;;;5015402;28;20221;-63
2022/01/08 01:17:42;;;;;;;85.90;64.13;;;;;;;;;;5016234;28;20634;-64
2022/01/08 01:20:12;;;;;;;67.00;20.57;;;;;;;;;;5015286;28;20244;-63
2022/01/08 01:23:18;;;;;;;50.80;16.73;;;;;;;;;;5016292;28;20685;-63
2022/01/08 01:25:38;;;;;;;31.67;12.17;;;;;;;;;;5014572;28;20240;-67
2022/01/08 01:41:48;;;;;;;107.90;30.93;;;;;;;;;;5016248;28;20202;-64
2022/01/08 01:47:02;;;;;;;42.43;15.67;;;;;;;;;;5016041;28;20677;-63
2022/01/08 01:49:35;;;;;;;46.13;15.70;;;;;;;;;;5015826;28;20197;-63
2022/01/08 01:52:05;;;;;;;36.70;13.43;;;;;;;;;;5015320;28;20213;-66
2022/01/08 01:54:33;;;;;;;74.87;19.10;;;;;;;;;;5015918;28;20289;-64
2022/01/08 01:57:02;;;;;;;80.87;21.67;;;;;;;;;;5016023;28;20209;-64
2022/01/08 01:59:31;;;;;;;103.80;65.03;;;;;;;;;;5015231;28;20241;-64
2022/01/08 02:01:59;;;;;;;100.33;38.37;;;;;;;;;;5015869;28;20640;-65
2022/01/08 02:04:27;;;;;;;131.07;35.10;;;;;;;;;;5015312;28;20220;-62
2022/01/08 02:06:54;;;;;;;55.47;19.17;;;;;;;;;;5015258;28;20216;-62
2022/01/08 02:09:22;;;;;;;49.23;18.00;;;;;;;;;;5015878;28;20212;-63
2022/01/08 02:12:05;;;;;;;46.37;17.03;;;;;;;;;;4998083;28;20214;-63
2022/01/08 02:14:36;;;;;;;35.83;13.30;;;;;;;;;;5015713;28;20193;-63
2022/01/08 02:17:05;;;;;;;27.80;12.50;;;;;;;;;;5015694;28;20232;-64
2022/01/08 02:19:33;;;;;;;54.90;16.27;;;;;;;;;;5015237;28;20731;-66
2022/01/08 02:22:02;;;;;;;91.10;35.40;;;;;;;;;;5015250;28;20240;-63
2022/01/08 02:24:30;;;;;;;73.50;21.37;;;;;;;;;;5015559;28;20217;-63
2022/01/08 02:26:58;;;;;;;44.57;15.80;;;;;;;;;;5015101;28;20657;-63
2022/01/08 02:29:26;;;;;;;39.17;15.30;;;;;;;;;;5015285;28;20213;-63
2022/01/08 02:32:15;;;;;;;40.63;15.37;;;;;;;;;;5015037;28;20669;-63
2022/01/08 02:34:44;;;;;;;33.00;12.87;;;;;;;;;;5015350;28;20215;-62
2022/01/08 02:37:15;;;;;;;84.97;22.13;;;;;;;;;;5015140;28;20217;-61
2022/01/08 02:39:43;;;;;;;66.27;19.67;;;;;;;;;;5015201;28;20243;-63
2022/01/08 02:42:13;;;;;;;65.93;44.03;;;;;;;;;;5014766;28;20688;-62
2022/01/08 02:44:42;;;;;;;66.77;21.87;;;;;;;;;;5015236;28;20714;-63
2022/01/08 02:47:13;;;;;;;34.17;13.60;;;;;;;;;;5014730;28;20279;-63
2022/01/08 02:49:40;;;;;;;28.57;12.47;;;;;;;;;;5014871;28;20229;-62
2022/01/08 02:52:08;;;;;;;25.60;11.90;;;;;;;;;;5014822;28;20304;-63
2022/01/08 02:54:36;;;;;;;27.37;11.93;;;;;;;;;;5014659;28;20218;-63
2022/01/08 02:57:04;;;;;;;27.97;10.70;;;;;;;;;;5015085;28;20205;-62
2022/01/08 02:59:32;;;;;;;25.63;11.10;;;;;;;;;;5014694;28;20295;-63
2022/01/08 03:02:00;;;;;;;62.50;17.53;;;;;;;;;;5014920;28;20272;-62
2022/01/08 03:04:27;;;;;;;51.60;22.13;;;;;;;;;;5015217;28;20205;-63
2022/01/08 03:06:55;;;;;;;158.53;36.03;;;;;;;;;;5014746;28;20213;-63
2022/01/08 03:09:22;;;;;;;74.67;22.90;;;;;;;;;;5014904;28;20221;-63
2022/01/08 03:11:49;;;;;;;39.40;13.47;;;;;;;;;;5014896;28;20213;-63
2022/01/08 03:14:17;;;;;;;36.07;13.87;;;;;;;;;;5014941;28;20213;-64
2022/01/08 03:16:44;;;;;;;30.00;12.10;;;;;;;;;;5014675;28;20541;-63
2022/01/08 03:19:12;;;;;;;91.90;22.53;;;;;;;;;;4997339;28;20237;-63
2022/01/08 03:21:42;;;;;;;138.47;54.70;;;;;;;;;;5014565;28;20210;-63
2022/01/08 03:24:14;;;;;;;43.43;30.53;;;;;;;;;;5014858;28;20232;-63
2022/01/08 03:26:42;;;;;;;136.40;33.37;;;;;;;;;;5014871;28;20206;-64
2022/01/08 03:29:09;;;;;;;62.43;18.97;;;;;;;;;;5014665;28;20205;-65
2022/01/08 03:31:36;;;;;;;44.93;15.83;;;;;;;;;;5014746;28;20213;-63
2022/01/08 03:34:05;;;;;;;55.27;17.83;;;;;;;;;;5014580;28;20669;-63
2022/01/08 03:36:32;;;;;;;49.80;17.40;;;;;;;;;;5014708;28;20213;-63
2022/01/08 03:39:00;;;;;;;40.20;15.13;;;;;;;;;;5014562;28;20268;-63
2022/01/08 03:41:27;;;;;;;58.10;17.70;;;;;;;;;;5014585;28;20259;-64
2022/01/08 03:43:55;;;;;;;475.80;115.60;;;;;;;;;;5014550;28;20206;-64
2022/01/08 03:46:26;;;;;;;77.67;29.30;;;;;;;;;;5014295;28;20228;-64
2022/01/08 03:51:31;;;;;;;59.37;18.17;;;;;;;;;;5014525;28;20292;-64
2022/01/08 03:53:59;;;;;;;38.93;13.03;;;;;;;;;;5014493;28;20213;-64
2022/01/08 03:56:27;;;;;;;26.53;11.70;;;;;;;;;;4997118;28;20205;-64
2022/01/08 03:58:54;;;;;;;47.33;14.07;;;;;;;;;;5014325;28;20259;-64
2022/01/08 04:01:21;;;;;;;66.70;17.20;;;;;;;;;;5013980;28;20716;-63
2022/01/08 04:03:49;;;;;;;46.30;30.57;;;;;;;;;;4996769;28;20221;-63
2022/01/08 04:06:16;;;;;;;42.43;19.60;;;;;;;;;;5014370;28;20233;-64
2022/01/08 04:08:44;;;;;;;52.00;17.03;;;;;;;;;;4981058;28;20288;-63
2022/01/08 04:11:11;;;;;;;31.93;11.40;;;;;;;;;;5014318;28;20216;-63
2022/01/08 04:13:41;;;;;;;28.00;11.10;;;;;;;;;;5014103;28;20296;-63
2022/01/08 04:16:13;;;;;;;26.77;10.97;;;;;;;;;;5014379;28;20209;-64
2022/01/08 04:18:40;;;;;;;22.73;10.47;;;;;;;;;;5014198;28;20209;-63
2022/01/08 04:21:36;;;;;;;22.40;10.03;;;;;;;;;;5014008;28;20213;-63
2022/01/08 04:23:57;;;;;;;67.93;17.13;;;;;;;;;;5017757;28;20576;-63
2022/01/08 04:26:25;;;;;;;97.37;37.67;;;;;;;;;;5000408;28;20215;-62
2022/01/08 04:28:55;;;;;;;55.07;15.13;;;;;;;;;;5017973;28;20209;-63
2022/01/08 04:31:24;;;;;;;48.17;15.87;;;;;;;;;;5017969;28;20202;-63
2022/01/08 04:33:53;;;;;;;35.80;14.00;;;;;;;;;;5017589;28;20209;-63
2022/01/08 04:36:20;;;;;;;27.47;10.67;;;;;;;;;;5016699;28;20244;-62
2022/01/08 04:38:48;;;;;;;27.90;10.30;;;;;;;;;;5000417;28;20237;-63
2022/01/08 04:41:15;;;;;;;68.03;17.43;;;;;;;;;;5017810;28;20212;-63
2022/01/08 04:43:43;;;;;;;109.60;26.07;;;;;;;;;;5016458;28;20734;-63
2022/01/08 04:46:12;;;;;;;183.73;142.17;;;;;;;;;;5017410;28;20217;-65
2022/01/08 04:48:39;;;;;;;71.27;29.70;;;;;;;;;;5017604;28;20210;-63
2022/01/08 04:51:07;;;;;;;57.13;17.57;;;;;;;;;;5000401;28;20213;-62
2022/01/08 04:53:35;;;;;;;62.50;20.03;;;;;;;;;;5017388;28;20228;-62
2022/01/08 04:56:02;;;;;;;34.40;14.23;;;;;;;;;;5017581;28;20217;-63
2022/01/08 04:58:30;;;;;;;26.83;11.73;;;;;;;;;;5017531;28;20212;-63
2022/01/08 05:00:57;;;;;;;28.20;10.60;;;;;;;;;;5017120;28;20249;-64
2022/01/08 05:03:24;;;;;;;26.67;10.73;;;;;;;;;;5017145;28;20205;-65
2022/01/08 05:05:52;;;;;;;32.53;12.20;;;;;;;;;;5016803;28;20220;-64
2022/01/08 05:08:19;;;;;;;64.87;26.27;;;;;;;;;;5016530;28;20601;-66
2022/01/08 05:10:46;;;;;;;80.17;22.37;;;;;;;;;;5016791;28;20213;-63
2022/01/08 05:13:13;;;;;;;30.97;11.90;;;;;;;;;;5016753;28;20214;-63
2022/01/08 05:15:41;;;;;;;24.83;10.50;;;;;;;;;;5016694;28;20340;-65
2022/01/08 05:18:10;;;;;;;23.60;9.83;;;;;;;;;;5016769;28;20232;-63
2022/01/08 05:20:40;;;;;;;23.23;9.73;;;;;;;;;;5016230;28;20809;-64
2022/01/08 05:23:08;;;;;;;144.37;32.63;;;;;;;;;;5016364;28;20210;-63
2022/01/08 05:25:35;;;;;;;95.37;22.77;;;;;;;;;;5016311;28;20213;-63
2022/01/08 05:28:03;;;;;;;72.73;56.10;;;;;;;;;;5016388;28;20214;-63
2022/01/08 05:30:31;;;;;;;59.00;20.30;;;;;;;;;;5016286;28;20217;-64
2022/01/08 05:32:58;;;;;;;55.23;17.87;;;;;;;;;;5015454;28;20252;-65
2022/01/08 05:35:27;;;;;;;29.33;12.53;;;;;;;;;;5015974;28;20209;-62
2022/01/08 05:37:55;;;;;;;22.77;10.30;;;;;;;;;;5016285;28;20213;-63
2022/01/08 05:40:23;;;;;;;21.53;10.13;;;;;;;;;;5016093;28;20233;-63
2022/01/08 05:42:50;;;;;;;20.57;9.63;;;;;;;;;;5016291;28;20219;-62
2022/01/08 05:45:18;;;;;;;20.40;9.70;;;;;;;;;;5015938;28;20213;-66
2022/01/08 05:47:45;;;;;;;89.60;24.03;;;;;;;;;;5015887;28;20899;-65
2022/01/08 05:50:12;;;;;;;80.90;31.60;;;;;;;;;;5015754;28;20691;-65
2022/01/08 05:52:40;;;;;;;87.87;20.27;;;;;;;;;;5015067;28;20300;-63
2022/01/08 05:55:08;;;;;;;50.13;16.00;;;;;;;;;;5016149;28;20215;-63
2022/01/08 05:57:35;;;;;;;38.20;12.73;;;;;;;;;;5015538;28;20216;-67
2022/01/08 06:00:07;;;;;;;32.33;11.63;;;;;;;;;;5015077;28;20742;-62
2022/01/08 06:02:35;;;;;;;42.83;15.33;;;;;;;;;;5015656;28;20217;-63
2022/01/08 06:05:04;;;;;;;82.33;19.33;;;;;;;;;;5015498;28;20213;-63
2022/01/08 06:07:32;;;;;;;304.80;162.57;;;;;;;;;;5015518;28;20206;-64
2022/01/08 06:10:00;;;;;;;54.67;29.07;;;;;;;;;;5015491;28;20213;-64
2022/01/08 06:12:27;;;;;;;52.87;16.67;;;;;;;;;;5015156;28;20221;-63
2022/01/08 06:14:54;;;;;;;374.93;164.50;;;;;;;;;;4997570;28;20217;-63
2022/01/08 06:17:21;;;;;;;411.83;183.23;;;;;;;;;;5015306;28;20302;-62
2022/01/08 06:19:49;;;;;;;595.17;300.87;;;;;;;;;;5015025;28;20217;-63
2022/01/08 06:22:16;;;;;;;646.77;316.87;;;;;;;;;;4997329;28;20244;-65
2022/01/08 06:24:43;;;;;;;913.10;473.23;;;;;;;;;;5015321;28;20248;-63
2022/01/08 06:27:11;;;;;;;836.67;439.17;;;;;;;;;;4997582;28;20603;-63
2022/01/08 06:29:38;;;;;;;578.73;255.47;;;;;;;;;;5014729;28;20627;-63
2022/01/08 06:32:06;;;;;;;282.57;66.63;;;;;;;;;;5014505;28;20572;-63
2022/01/08 06:34:33;;;;;;;249.37;56.10;;;;;;;;;;5014661;28;20213;-63
2022/01/08 06:37:01;;;;;;;248.83;66.73;;;;;;;;;;5014375;28;20673;-63
2022/01/08 06:39:28;;;;;;;322.47;88.53;;;;;;;;;;5014434;28;20620;-62
2022/01/08 06:41:55;;;;;;;213.57;48.03;;;;;;;;;;5006746;28;20236;-64
2022/01/08 06:44:22;;;;;;;154.60;38.47;;;;;;;;;;5013902;28;20229;-63
2022/01/08 06:46:50;;;;;;;202.40;52.97;;;;;;;;;;5001474;28;20602;-61
2022/01/08 06:49:17;;;;;;;177.43;47.03;;;;;;;;;;5013337;28;20240;-62
2022/01/08 06:51:45;;;;;;;107.87;66.53;;;;;;;;;;5001369;28;20319;-64
2022/01/08 06:54:12;;;;;;;102.17;38.17;;;;;;;;;;5001808;28;20245;-62
2022/01/08 06:56:39;;;;;;;155.93;37.60;;;;;;;;;;5005103;28;20251;-62
2022/01/08 06:59:07;;;;;;;113.93;33.20;;;;;;;;;;5001296;28;20712;-63
2022/01/08 07:01:35;;;;;;;73.27;24.83;;;;;;;;;;4998495;28;20279;-65
2022/01/08 07:04:04;;;;;;;116.50;34.33;;;;;;;;;;5007335;28;20265;-65
2022/01/08 07:06:31;;;;;;;38.77;15.10;;;;;;;;;;5006831;28;20242;-68
2022/01/08 07:08:58;;;;;;;37.57;16.07;;;;;;;;;;5001039;28;20234;-68
2022/01/08 07:11:26;;;;;;;68.43;20.03;;;;;;;;;;4991861;28;20250;-66
2022/01/08 07:13:53;;;;;;;125.73;54.87;;;;;;;;;;4993635;28;20237;-63
2022/01/08 07:16:21;;;;;;;86.00;38.87;;;;;;;;;;4993924;28;20249;-65
2022/01/08 07:18:48;;;;;;;94.87;27.73;;;;;;;;;;4994207;28;20241;-62
2022/01/08 07:21:16;;;;;;;63.10;22.13;;;;;;;;;;5000597;28;20242;-62
2022/01/08 07:23:44;;;;;;;86.57;29.37;;;;;;;;;;5007585;28;20312;-61
2022/01/08 07:26:11;;;;;;;65.20;21.47;;;;;;;;;;4989200;28;20250;-62
2022/01/08 07:28:40;;;;;;;40.50;16.73;;;;;;;;;;4994723;28;20238;-64
2022/01/08 07:31:08;;;;;;;38.93;16.50;;;;;;;;;;5010718;28;20245;-62
2022/01/08 07:33:35;;;;;;;37.70;13.73;;;;;;;;;;5010409;28;20268;-62
2022/01/08 07:36:04;;;;;;;265.83;87.47;;;;;;;;;;5004438;28;20230;-62
2022/01/08 07:38:33;;;;;;;94.40;34.30;;;;;;;;;;4991985;28;20705;-62
2022/01/08 07:41:00;;;;;;;55.03;18.60;;;;;;;;;;4996686;28;20230;-66
2022/01/08 07:43:27;;;;;;;94.10;28.50;;;;;;;;;;5001394;28;20333;-64
2022/01/08 07:45:55;;;;;;;60.37;21.50;;;;;;;;;;4995335;28;20261;-65
2022/01/08 07:48:23;;;;;;;41.33;17.80;;;;;;;;;;5010196;28;20237;-66
2022/01/08 07:50:50;;;;;;;32.57;14.17;;;;;;;;;;5013687;28;20329;-68
2022/01/08 07:53:18;;;;;;;42.50;17.13;;;;;;;;;;5012839;28;20255;-63
2022/01/08 07:55:46;;;;;;;64.17;22.37;;;;;;;;;;5009763;28;20715;-65
2022/01/08 07:58:13;;;;;;;280.60;63.63;;;;;;;;;;5013098;28;20282;-65
2022/01/08 08:00:40;;;;;;;110.13;33.60;;;;;;;;;;5012906;28;20248;-68
2022/01/08 08:03:08;;;;;;;87.47;26.90;;;;;;;;;;4999163;28;20264;-65
2022/01/08 08:05:35;;;;;;;37.27;14.77;;;;;;;;;;4993644;28;20312;-66
2022/01/08 08:08:02;;;;;;;32.97;12.50;;;;;;;;;;4993604;28;20387;-64
2022/01/08 08:10:32;;;;;;;66.63;23.90;;;;;;;;;;4994861;28;20292;-66
2022/01/08 08:13:00;;;;;;;69.63;23.87;;;;;;;;;;5003975;28;20286;-67
2022/01/08 08:15:29;;;;;;;133.70;88.47;;;;;;;;;;4987862;28;20271;-65
2022/01/08 08:18:00;;;;;;;46.23;20.07;;;;;;;;;;5002715;28;20315;-62
2022/01/08 08:20:37;;;;;;;32.07;12.40;;;;;;;;;;5006161;28;20237;-65
2022/01/08 08:23:12;;;;;;;71.90;24.37;;;;;;;;;;5003850;28;20237;-66
2022/01/08 08:25:45;;;;;;;30.37;13.67;;;;;;;;;;4994793;28;20237;-64
2022/01/08 08:28:16;;;;;;;36.60;16.33;;;;;;;;;;5014696;28;20237;-64
2022/01/08 08:30:45;;;;;;;37.13;14.60;;;;;;;;;;5008556;28;20229;-63
2022/01/08 08:33:13;;;;;;;60.33;22.73;;;;;;;;;;5007862;28;20272;-64
2022/01/08 08:38:54;;;;;;;47.00;18.43;;;;;;;;;;5045383;28;20270;-65
2022/01/08 08:41:22;;;;;;;92.17;26.43;;;;;;;;;;5018775;28;20208;-65
2022/01/08 08:43:50;;;;;;;70.07;25.03;;;;;;;;;;5035849;28;20220;-65
2022/01/08 08:46:17;;;;;;;75.87;25.27;;;;;;;;;;5035053;28;20224;-65
2022/01/08 08:48:44;;;;;;;49.87;19.10;;;;;;;;;;5033511;28;20660;-65
2022/01/08 08:51:11;;;;;;;34.03;15.70;;;;;;;;;;5015647;28;20233;-63
2022/01/08 08:53:39;;;;;;;139.17;33.20;;;;;;;;;;5004939;28;20212;-66
2022/01/08 08:56:06;;;;;;;192.37;120.97;;;;;;;;;;5033599;28;20218;-66
2022/01/08 08:58:33;;;;;;;57.83;27.17;;;;;;;;;;5045430;28;20282;-63
2022/01/08 09:01:01;;;;;;;48.37;20.30;;;;;;;;;;5015329;28;20223;-64
2022/01/08 09:03:28;;;;;;;45.53;18.40;;;;;;;;;;5032786;28;20217;-65
2022/01/08 09:05:56;;;;;;;38.70;17.70;;;;;;;;;;5006971;28;20231;-62
2022/01/08 09:08:24;;;;;;;32.63;14.10;;;;;;;;;;5037017;28;20262;-65
2022/01/08 09:10:52;;;;;;;35.57;16.07;;;;;;;;;;5019837;28;20299;-64
2022/01/08 09:13:20;;;;;;;34.90;14.40;;;;;;;;;;5019531;28;20587;-68
2022/01/08 09:15:47;;;;;;;27.60;12.67;;;;;;;;;;5035378;28;20221;-62
2022/01/08 09:18:16;;;;;;;274.73;77.70;;;;;;;;;;5027767;28;20218;-62
2022/01/08 09:20:48;;;;;;;30.23;18.13;;;;;;;;;;5036673;28;20213;-65
2022/01/08 09:23:16;;;;;;;73.10;22.20;;;;;;;;;;5018892;28;20299;-63
2022/01/08 09:25:43;;;;;;;42.93;15.60;;;;;;;;;;5036151;28;20221;-63
2022/01/08 09:28:10;;;;;;;32.90;13.63;;;;;;;;;;5019856;28;20604;-65
2022/01/08 09:30:37;;;;;;;26.67;11.40;;;;;;;;;;5042995;28;20244;-62
2022/01/08 09:33:05;;;;;;;29.03;12.47;;;;;;;;;;5039303;28;20212;-61
2022/01/08 09:35:32;;;;;;;25.63;11.87;;;;;;;;;;5041354;28;20212;-64
2022/01/08 09:38:03;;;;;;;20.20;10.27;;;;;;;;;;5018753;28;20340;-64
2022/01/08 09:40:30;;;;;;;37.40;15.30;;;;;;;;;;5036118;28;20212;-62
2022/01/08 09:42:57;;;;;;;34.43;17.37;;;;;;;;;;5035738;28;20247;-65
2022/01/08 09:45:24;;;;;;;41.10;15.23;;;;;;;;;;5027073;28;20212;-65
2022/01/08 09:47:52;;;;;;;28.50;11.57;;;;;;;;;;5053568;28;20207;-62
2022/01/08 09:50:19;;;;;;;25.53;11.97;;;;;;;;;;5053940;28;20240;-62
2022/01/08 09:52:47;;;;;;;26.53;12.07;;;;;;;;;;5045830;28;20675;-62
2022/01/08 09:55:14;;;;;;;32.13;13.57;;;;;;;;;;5046985;28;20244;-63
2022/01/08 09:57:41;;;;;;;88.77;22.77;;;;;;;;;;5051961;28;20658;-68
2022/01/08 10:00:11;;;;;;;47.63;33.10;;;;;;;;;;5044500;28;20243;-60
2022/01/08 10:02:39;;;;;;;55.10;19.50;;;;;;;;;;5036469;28;20220;-59
2022/01/08 10:05:11;;;;;;;37.40;15.73;;;;;;;;;;5049739;28;20275;-63
2022/01/08 10:07:40;;;;;;;41.30;16.17;;;;;;;;;;5043688;28;20236;-61
2022/01/08 10:10:17;;;;;;;28.23;12.77;;;;;;;;;;5042790;28;20287;-60
2022/01/08 10:12:48;;;;;;;29.57;12.53;;;;;;;;;;5034805;28;20228;-60
2022/01/08 10:18:11;;;;;;;33.47;14.50;;;;;;;;;;5034717;28;20572;-60
2022/01/08 10:20:39;;;;;;;58.30;19.37;;;;;;;;;;5034570;28;20319;-62
2022/01/08 10:23:11;;;;;;;37.77;22.67;;;;;;;;;;5034907;28;20256;-62
2022/01/08 10:25:55;;;;;;;40.07;16.53;;;;;;;;;;5035443;28;20695;-60
2022/01/08 10:28:45;;;;;;;60.03;20.67;;;;;;;;;;5035371;28;20240;-64
2022/01/08 10:31:20;;;;;;;36.33;14.93;;;;;;;;;;5033734;28;20756;-65
2022/01/08 10:33:52;;;;;;;48.73;18.67;;;;;;;;;;5035068;28;20270;-63
2022/01/08 10:36:21;;;;;;;34.63;15.43;;;;;;;;;;5034815;28;20233;-63
2022/01/08 10:38:54;;;;;;;36.07;14.80;;;;;;;;;;5024661;28;20271;-65
2022/01/08 10:41:24;;;;;;;35.03;13.80;;;;;;;;;;5014395;28;20279;-67
2022/01/08 10:44:08;;;;;;;123.40;31.73;;;;;;;;;;5014612;28;20291;-66
2022/01/08 10:46:36;;;;;;;48.13;20.07;;;;;;;;;;5014842;28;20232;-67
2022/01/08 10:49:04;;;;;;;48.63;17.23;;;;;;;;;;5014485;28;20589;-66
2022/01/08 10:51:36;;;;;;;51.40;19.63;;;;;;;;;;5013280;28;20567;-65
2022/01/08 10:54:08;;;;;;;44.57;17.30;;;;;;;;;;5028895;28;20240;-64
2022/01/08 10:56:42;;;;;;;42.00;15.93;;;;;;;;;;5013550;28;20241;-65
2022/01/08 10:59:12;;;;;;;61.67;18.57;;;;;;;;;;5012911;28;20240;-66
2022/01/08 11:01:49;;;;;;;39.73;15.03;;;;;;;;;;5035647;28;20317;-66
2022/01/08 11:04:32;;;;;;;34.83;21.53;;;;;;;;;;5024375;28;20774;-63
2022/01/08 11:07:03;;;;;;;78.87;25.17;;;;;;;;;;5035397;28;20677;-63
2022/01/08 11:09:31;;;;;;;48.00;18.33;;;;;;;;;;5029253;28;20248;-62
2022/01/08 11:12:00;;;;;;;27.83;13.77;;;;;;;;;;5035802;28;20326;-66
2022/01/08 11:17:35;;;;;;;25.33;13.70;;;;;;;;;;5035861;28;20243;-65
2022/01/08 11:20:11;;;;;;;32.43;14.40;;;;;;;;;;5037551;28;20308;-64
2022/01/08 11:22:41;;;;;;;31.33;15.07;;;;;;;;;;5039085;28;20236;-62
2022/01/08 11:25:19;;;;;;;53.73;25.37;;;;;;;;;;5039424;28;20240;-63
2022/01/08 11:28:00;;;;;;;72.73;28.00;;;;;;;;;;5038709;28;20242;-63
2022/01/08 11:30:30;;;;;;;71.53;32.23;;;;;;;;;;5038427;28;20243;-62
2022/01/08 11:33:03;;;;;;;131.37;56.80;;;;;;;;;;5039994;28;20232;-64
2022/01/08 11:35:38;;;;;;;69.33;32.40;;;;;;;;;;5041666;28;20239;-65
2022/01/08 11:38:08;;;;;;;30.53;15.47;;;;;;;;;;5038273;28;20247;-62
2022/01/08 11:40:37;;;;;;;67.33;23.13;;;;;;;;;;5039916;28;20231;-63
2022/01/08 11:43:05;;;;;;;42.67;18.17;;;;;;;;;;5047168;28;20242;-64
2022/01/08 11:45:40;;;;;;;50.80;31.27;;;;;;;;;;5014114;28;20331;-63
2022/01/08 11:48:09;;;;;;;72.03;24.00;;;;;;;;;;5036735;28;20239;-64
2022/01/08 11:50:37;;;;;;;61.83;21.53;;;;;;;;;;5022518;28;20315;-64
2022/01/08 11:53:14;;;;;;;46.40;18.53;;;;;;;;;;5038293;28;20323;-63
2022/01/08 11:55:44;;;;;;;31.67;14.97;;;;;;;;;;5041241;28;20325;-66
2022/01/08 11:58:14;;;;;;;41.43;16.47;;;;;;;;;;5040700;28;20307;-61
2022/01/08 12:00:49;;;;;;;26.23;12.17;;;;;;;;;;5040381;28;20289;-63
2022/01/08 12:03:23;;;;;;;34.00;15.60;;;;;;;;;;5044949;28;20236;-63
2022/01/08 12:05:51;;;;;;;41.07;16.37;;;;;;;;;;5036833;28;20302;-63
2022/01/08 12:08:20;;;;;;;59.43;23.67;;;;;;;;;;5037496;28;20600;-65
2022/01/08 12:10:59;;;;;;;79.10;22.93;;;;;;;;;;5033352;28;20235;-64
2022/01/08 12:13:44;;;;;;;48.00;19.63;;;;;;;;;;5018057;28;20231;-63
2022/01/08 12:16:32;;;;;;;45.57;18.53;;;;;;;;;;5036190;28;20220;-63
2022/01/08 12:19:02;;;;;;;39.63;16.63;;;;;;;;;;5036450;28;20268;-62
2022/01/08 12:21:38;;;;;;;69.83;21.80;;;;;;;;;;5022908;28;20236;-70
2022/01/08 12:24:32;;;;;;;51.13;18.03;;;;;;;;;;5036376;28;20246;-66
2022/01/08 12:27:02;;;;;;;64.67;49.10;;;;;;;;;;5035747;28;20322;-66
2022/01/08 12:29:37;;;;;;;44.83;21.73;;;;;;;;;;5013068;28;20233;-68
2022/01/08 12:32:26;;;;;;;56.90;20.73;;;;;;;;;;5012921;28;20255;-66
2022/01/08 12:35:02;;;;;;;66.50;23.60;;;;;;;;;;5011709;28;20248;-65
2022/01/08 12:37:39;;;;;;;33.93;15.27;;;;;;;;;;5019795;28;20278;-68
2022/01/08 12:40:10;;;;;;;37.83;15.37;;;;;;;;;;5052425;28;20289;-67
2022/01/08 12:42:40;;;;;;;40.90;17.07;;;;;;;;;;5053405;28;20236;-66
2022/01/08 12:45:19;;;;;;;50.77;19.10;;;;;;;;;;5038519;28;20236;-67
2022/01/08 12:47:56;;;;;;;58.07;40.87;;;;;;;;;;5056461;28;20289;-68
2022/01/08 12:50:26;;;;;;;61.00;22.13;;;;;;;;;;5038040;28;20706;-69
2022/01/08 12:53:08;;;;;;;66.23;23.13;;;;;;;;;;5056268;28;20244;-71
2022/01/08 12:55:41;;;;;;;39.77;16.97;;;;;;;;;;5055924;28;20319;-69
2022/01/08 12:58:18;;;;;;;36.27;16.50;;;;;;;;;;5056152;28;20642;-66
2022/01/08 13:01:00;;;;;;;35.20;15.67;;;;;;;;;;5055736;28;20777;-70
2022/01/08 13:03:29;;;;;;;30.73;14.27;;;;;;;;;;5055870;28;20240;-65
2022/01/08 13:05:58;;;;;;;33.73;14.77;;;;;;;;;;5054173;28;20240;-69
2022/01/08 13:08:32;;;;;;;108.73;31.37;;;;;;;;;;5051518;28;20569;-65
2022/01/08 13:11:04;;;;;;;29.83;17.97;;;;;;;;;;5053637;28;20310;-68
2022/01/08 13:13:44;;;;;;;80.03;27.20;;;;;;;;;;5054024;28;20235;-64
2022/01/08 13:16:36;;;;;;;59.27;21.87;;;;;;;;;;5052133;28;20302;-64
2022/01/08 13:19:09;;;;;;;43.37;17.43;;;;;;;;;;5037396;28;20777;-70
2022/01/08 13:21:50;;;;;;;31.03;13.77;;;;;;;;;;5054794;28;20231;-65
2022/01/08 13:24:18;;;;;;;30.17;14.20;;;;;;;;;;5054967;28;20231;-65
2022/01/08 13:26:51;;;;;;;31.27;14.17;;;;;;;;;;5053906;28;20235;-67
2022/01/08 13:29:24;;;;;;;54.43;19.53;;;;;;;;;;5053844;28;20710;-62
2022/01/08 13:32:05;;;;;;;143.80;48.33;;;;;;;;;;5054755;28;20243;-62
2022/01/08 13:34:44;;;;;;;42.87;23.90;;;;;;;;;;5064884;28;20281;-66
2022/01/08 13:37:21;;;;;;;42.37;17.60;;;;;;;;;;5069749;28;20243;-73
2022/01/08 13:40:08;;;;;;;40.27;16.70;;;;;;;;;;5055006;28;20663;-74
2022/01/08 13:42:42;;;;;;;41.70;15.80;;;;;;;;;;5055197;28;20293;-76
2022/01/08 13:45:14;;;;;;;38.03;17.00;;;;;;;;;;5037409;28;20759;-68
2022/01/08 13:47:43;;;;;;;32.20;15.73;;;;;;;;;;5054601;28;20236;-66
2022/01/08 13:50:16;;;;;;;32.50;14.40;;;;;;;;;;5054785;28;20236;-67
2022/01/08 13:52:48;;;;;;;78.13;26.50;;;;;;;;;;5054748;28;20254;-73
2022/01/08 13:55:23;;;;;;;42.73;21.83;;;;;;;;;;5054111;28;20326;-74
2022/01/08 13:58:12;;;;;;;47.00;24.40;;;;;;;;;;5020793;28;20242;-73
2022/01/08 14:00:48;;;;;;;74.20;25.90;;;;;;;;;;5037271;28;20232;-73
2022/01/08 14:03:27;;;;;;;62.53;28.03;;;;;;;;;;5021426;28;20741;-72
2022/01/08 14:05:56;;;;;;;202.53;116.47;;;;;;;;;;5019828;28;20254;-76
2022/01/08 14:08:24;;;;;;;108.13;63.03;;;;;;;;;;5054594;28;20236;-69
2022/01/08 14:10:55;;;;;;;53.40;32.67;;;;;;;;;;5054661;28;20323;-71
2022/01/08 14:13:33;;;;;;;35.17;17.27;;;;;;;;;;5054562;28;20248;-73
2022/01/08 14:16:07;;;;;;;108.60;39.67;;;;;;;;;;5036828;28;20232;-68
2022/01/08 14:18:34;;;;;;;34.47;20.17;;;;;;;;;;5054853;28;20236;-69
2022/01/08 14:21:24;;;;;;;73.17;25.33;;;;;;;;;;5036355;28;20326;-66
2022/01/08 14:23:52;;;;;;;46.83;18.97;;;;;;;;;;5054384;28;20236;-71
2022/01/08 14:26:26;;;;;;;37.47;17.30;;;;;;;;;;5054302;28;20240;-75
2022/01/08 14:29:11;;;;;;;79.30;36.13;;;;;;;;;;5036069;28;20231;-73
2022/01/08 14:31:53;;;;;;;51.80;26.00;;;;;;;;;;5053820;28;20703;-76
2022/01/08 14:34:21;;;;;;;36.13;15.57;;;;;;;;;;5053707;28;20273;-73
2022/01/08 14:36:56;;;;;;;37.60;16.60;;;;;;;;;;5049331;28;20232;-73
2022/01/08 14:39:30;;;;;;;327.33;135.13;;;;;;;;;;5038434;28;20620;-75
2022/01/08 14:42:05;;;;;;;147.47;63.63;;;;;;;;;;5041105;28;20286;-76
2022/01/08 14:44:34;;;;;;;222.87;78.37;;;;;;;;;;5061408;28;20227;-74
2022/01/08 14:47:05;;;;;;;58.23;26.80;;;;;;;;;;5061281;28;20231;-73
2022/01/08 14:49:33;;;;;;;58.23;22.23;;;;;;;;;;5044130;28;20550;-68
2022/01/08 14:52:04;;;;;;;96.10;41.60;;;;;;;;;;5035557;28;20654;-73
2022/01/08 14:54:36;;;;;;;66.57;28.23;;;;;;;;;;5052457;28;20722;-68
2022/01/08 14:57:10;;;;;;;98.37;39.27;;;;;;;;;;5050572;28;20338;-66
2022/01/08 14:59:38;;;;;;;132.00;48.10;;;;;;;;;;5032932;28;20235;-70